createdAt,value
2023-04-11T00:02:06.386Z,6.73
2023-04-11T00:04:39.129Z,7.40
2023-04-11T00:07:09.296Z,7.00
2023-04-11T00:09:38.013Z,6.63
2023-04-11T00:12:07.210Z,6.97
2023-04-11T00:14:35.633Z,6.40
2023-04-11T00:17:04.048Z,7.40
2023-04-11T00:19:33.468Z,7.37
2023-04-11T00:22:02.904Z,7.13
2023-04-11T00:24:32.873Z,7.33
2023-04-11T00:27:01.460Z,6.10
2023-04-11T00:29:29.951Z,6.33
2023-04-11T00:31:58.466Z,8.03
2023-04-11T00:34:27.153Z,6.70
2023-04-11T00:36:56.008Z,7.37
2023-04-11T00:39:26.371Z,6.83
2023-04-11T00:42:04.905Z,7.07
2023-04-11T00:44:33.451Z,6.90
2023-04-11T00:47:03.853Z,7.43
2023-04-11T00:49:32.990Z,6.77
2023-04-11T00:52:01.716Z,6.97
2023-04-11T00:54:30.434Z,7.10
2023-04-11T00:57:01.077Z,7.33
2023-04-11T00:59:30.352Z,6.63
2023-04-11T01:01:59.595Z,6.47
2023-04-11T01:04:29.449Z,6.70
2023-04-11T01:07:01.864Z,6.17
2023-04-11T01:09:30.668Z,7.37
2023-04-11T01:12:01.456Z,6.47
2023-04-11T01:14:30.910Z,6.27
2023-04-11T01:17:02.174Z,7.00
2023-04-11T01:19:31.288Z,8.23
2023-04-11T01:22:01.753Z,6.80
2023-04-11T01:24:31.886Z,6.63
2023-04-11T01:27:01.800Z,5.83
2023-04-11T01:29:30.357Z,7.80
2023-04-11T01:31:58.790Z,7.50
2023-04-11T01:34:29.130Z,7.27
2023-04-11T01:36:57.604Z,7.13
2023-04-11T01:39:26.139Z,6.10
2023-04-11T01:41:57.053Z,6.73
2023-04-11T01:44:26.851Z,7.00
2023-04-11T01:46:55.353Z,6.00
2023-04-11T01:49:25.848Z,5.67
2023-04-11T01:51:54.304Z,5.97
2023-04-11T01:54:22.812Z,6.43
2023-04-11T01:56:52.352Z,8.27
2023-04-11T01:59:22.230Z,6.87
2023-04-11T02:01:50.834Z,5.70
2023-04-11T02:04:19.509Z,6.43
2023-04-11T02:06:48.176Z,5.97
2023-04-11T02:09:16.859Z,5.77
2023-04-11T02:11:45.279Z,5.37
2023-04-11T02:14:14.934Z,8.73
2023-04-11T02:16:55.430Z,9.53
2023-04-11T02:19:26.243Z,12.87
2023-04-11T02:21:54.969Z,7.73
2023-04-11T02:24:23.449Z,6.10
2023-04-11T02:26:51.874Z,6.70
2023-04-11T02:29:20.360Z,6.07
2023-04-11T02:31:49.962Z,5.60
2023-04-11T02:34:19.932Z,6.03
2023-04-11T02:36:49.041Z,6.13
2023-04-11T02:39:17.631Z,6.80
2023-04-11T02:41:46.133Z,6.03
2023-04-11T02:44:14.558Z,6.37
2023-04-11T02:46:45.708Z,5.53
2023-04-11T02:49:14.231Z,7.10
2023-04-11T02:51:44.029Z,6.37
2023-04-11T02:54:12.797Z,6.07
2023-04-11T02:56:41.322Z,7.47
2023-04-11T02:59:09.740Z,6.57
2023-04-11T03:01:38.923Z,6.27
2023-04-11T03:04:08.789Z,6.37
2023-04-11T03:06:37.758Z,6.47
2023-04-11T03:09:07.532Z,6.07
2023-04-11T03:11:35.975Z,6.07
2023-04-11T03:14:04.758Z,5.30
2023-04-11T03:16:33.638Z,5.67
2023-04-11T03:19:02.159Z,6.27
2023-04-11T03:21:31.584Z,7.03
2023-04-11T03:24:00.148Z,5.63
2023-04-11T03:26:29.986Z,5.40
2023-04-11T03:28:58.736Z,6.07
2023-04-11T03:31:27.519Z,6.10
2023-04-11T03:33:56.125Z,7.97
2023-04-11T03:36:26.579Z,6.37
2023-04-11T03:38:55.210Z,5.73
2023-04-11T03:41:23.853Z,6.93
2023-04-11T03:43:53.658Z,8.07
2023-04-11T03:46:22.226Z,6.33
2023-04-11T03:48:50.717Z,6.20
2023-04-11T03:51:19.164Z,7.93
2023-04-11T03:53:47.625Z,7.07
2023-04-11T03:56:16.083Z,6.33
2023-04-11T03:58:44.514Z,6.90
2023-04-11T04:01:14.301Z,6.37
2023-04-11T04:03:42.959Z,6.90
2023-04-11T04:06:11.623Z,8.30
2023-04-11T04:08:40.065Z,7.40
2023-04-11T04:11:08.663Z,8.03
2023-04-11T04:13:37.218Z,5.93
2023-04-11T04:16:06.370Z,7.00
2023-04-11T04:18:36.204Z,6.07
2023-04-11T04:21:07.175Z,8.33
2023-04-11T04:23:36.198Z,6.83
2023-04-11T04:26:05.034Z,6.00
2023-04-11T04:28:33.701Z,11.43
2023-04-11T04:31:02.207Z,12.37
2023-04-11T04:33:33.055Z,7.63
2023-04-11T04:36:04.384Z,7.13
2023-04-11T04:38:32.986Z,5.57
2023-04-11T04:41:01.620Z,6.90
2023-04-11T04:43:32.368Z,6.73
2023-04-11T04:46:01.099Z,7.00
2023-04-11T04:48:29.497Z,11.77
2023-04-11T04:50:57.913Z,25.47
2023-04-11T04:53:27.703Z,12.70
2023-04-11T04:55:56.416Z,9.13
2023-04-11T04:58:24.899Z,7.90
2023-04-11T05:00:55.859Z,10.87
2023-04-11T05:03:25.003Z,11.57
2023-04-11T05:05:53.604Z,10.20
2023-04-11T05:08:22.038Z,9.27
2023-04-11T05:10:51.839Z,9.53
2023-04-11T05:13:20.256Z,12.23
2023-04-11T05:15:49.241Z,12.30
2023-04-11T05:18:17.761Z,8.37
2023-04-11T05:20:46.216Z,13.23
2023-04-11T05:23:14.641Z,10.23
2023-04-11T05:25:43.140Z,15.63
2023-04-11T05:28:12.885Z,10.80
2023-04-11T05:30:41.354Z,12.23
2023-04-11T05:33:09.974Z,10.93
2023-04-11T05:35:38.524Z,11.07
2023-04-11T05:38:06.984Z,13.80
2023-04-11T05:40:36.279Z,12.07
2023-04-11T05:43:05.337Z,14.70
2023-04-11T05:45:35.644Z,11.53
2023-04-11T05:48:04.677Z,15.73
2023-04-11T05:50:33.285Z,12.80
2023-04-11T05:53:01.712Z,13.47
2023-04-11T05:55:30.608Z,10.10
2023-04-11T05:57:59.039Z,11.27
2023-04-11T06:00:31.038Z,9.93
2023-04-11T06:03:01.819Z,10.57
2023-04-11T06:05:31.562Z,9.77
2023-04-11T06:08:00.894Z,12.07
2023-04-11T06:10:29.621Z,10.90
2023-04-11T06:12:58.291Z,10.03
2023-04-11T06:15:27.728Z,12.80
2023-04-11T06:17:56.437Z,11.40
2023-04-11T06:20:26.421Z,13.23
2023-04-11T06:22:54.902Z,15.40
2023-04-11T06:25:24.514Z,24.07
2023-04-11T06:27:52.941Z,22.07
2023-04-11T06:30:21.463Z,24.13
2023-04-11T06:32:49.982Z,15.00
2023-04-11T06:35:20.395Z,25.20
2023-04-11T06:37:50.228Z,27.47
2023-04-11T06:40:20.053Z,23.47
2023-04-11T06:42:48.509Z,20.50
2023-04-11T06:45:16.989Z,14.43
2023-04-11T06:47:45.464Z,13.37
2023-04-11T06:50:14.116Z,13.30
2023-04-11T06:52:42.618Z,11.00
2023-04-11T06:55:15.389Z,10.17
2023-04-11T06:57:45.005Z,9.60
2023-04-11T07:00:14.460Z,10.50
2023-04-11T07:02:45.103Z,10.63
2023-04-11T07:05:13.863Z,9.20
2023-04-11T07:07:42.256Z,9.10
2023-04-11T07:10:12.376Z,9.27
2023-04-11T07:12:40.840Z,26.07
2023-04-11T07:15:10.906Z,13.50
2023-04-11T07:17:39.448Z,12.47
2023-04-11T07:20:09.986Z,8.37
2023-04-11T07:22:38.541Z,8.50
2023-04-11T07:25:07.663Z,7.63
2023-04-11T07:27:37.472Z,8.53
2023-04-11T07:30:07.108Z,7.13
2023-04-11T07:32:36.650Z,7.37
2023-04-11T07:35:05.409Z,8.53
2023-04-11T07:37:34.032Z,8.37
2023-04-11T07:40:06.624Z,7.77
2023-04-11T07:42:35.342Z,7.43
2023-04-11T07:45:05.834Z,21.53
2023-04-11T07:47:34.414Z,15.77
2023-04-11T07:50:03.150Z,9.00
2023-04-11T07:52:31.864Z,9.93
2023-04-11T07:55:00.647Z,9.47
2023-04-11T07:57:29.109Z,11.20
2023-04-11T07:59:59.964Z,12.53
2023-04-11T08:02:29.988Z,12.23
2023-04-11T08:04:58.661Z,12.77
2023-04-11T08:07:27.248Z,20.73
2023-04-11T08:09:55.881Z,8.27
2023-04-11T08:12:24.372Z,8.00
2023-04-11T08:14:53.065Z,8.40
2023-04-11T08:17:28.297Z,7.70
2023-04-11T08:20:02.087Z,7.17
2023-04-11T08:22:31.193Z,7.93
2023-04-11T08:24:59.635Z,7.50
2023-04-11T08:27:28.062Z,9.10
2023-04-11T08:29:58.419Z,9.47
2023-04-11T08:32:26.977Z,8.47
2023-04-11T08:34:55.586Z,7.47
2023-04-11T08:37:25.440Z,7.70
2023-04-11T08:39:53.843Z,6.77
2023-04-11T08:42:25.877Z,9.23
2023-04-11T08:44:55.610Z,7.83
2023-04-11T08:47:24.502Z,26.73
2023-04-11T08:49:53.334Z,17.67
2023-04-11T08:52:24.869Z,8.87
2023-04-11T08:54:55.935Z,7.07
2023-04-11T08:57:31.601Z,8.20
2023-04-11T09:00:08.368Z,9.07
2023-04-11T09:02:36.900Z,8.37
2023-04-11T09:05:05.927Z,8.97
2023-04-11T09:07:49.406Z,7.23
2023-04-11T09:10:23.443Z,8.10
2023-04-11T09:12:52.065Z,9.43
2023-04-11T09:15:21.637Z,8.53
2023-04-11T09:17:50.936Z,9.30
2023-04-11T09:20:20.575Z,7.87
2023-04-11T09:22:50.882Z,7.37
2023-04-11T09:25:21.254Z,7.33
2023-04-11T09:27:50.591Z,10.27
2023-04-11T09:30:23.601Z,8.70
2023-04-11T09:32:53.548Z,7.80
2023-04-11T09:35:24.877Z,12.73
2023-04-11T09:37:55.411Z,9.97
2023-04-11T09:40:26.770Z,8.30
2023-04-11T09:42:59.471Z,7.70
2023-04-11T09:45:30.827Z,8.20
2023-04-11T09:48:00.901Z,11.37
2023-04-11T09:50:29.740Z,9.57
2023-04-11T09:52:59.414Z,8.60
2023-04-11T09:55:29.375Z,13.17
2023-04-11T09:57:57.827Z,7.20
2023-04-11T10:00:29.405Z,8.40
2023-04-11T10:02:58.217Z,7.47
2023-04-11T10:05:28.109Z,7.87
2023-04-11T10:08:01.042Z,10.20
2023-04-11T10:10:31.180Z,9.63
2023-04-11T10:12:59.959Z,8.17
2023-04-11T10:15:29.040Z,8.27
2023-04-11T10:18:11.192Z,7.47
2023-04-11T10:20:44.833Z,8.30
2023-04-11T10:23:14.068Z,7.60
2023-04-11T10:25:55.279Z,6.83
2023-04-11T10:28:34.651Z,7.20
2023-04-11T10:31:05.038Z,9.27
2023-04-11T10:33:35.161Z,6.50
2023-04-11T10:36:06.423Z,7.10
2023-04-11T10:38:51.525Z,7.30
2023-04-11T10:41:31.338Z,6.70
2023-04-11T10:44:20.927Z,6.83
2023-04-11T10:46:51.953Z,7.13
2023-04-11T10:49:37.916Z,7.30
2023-04-11T10:52:20.876Z,6.37
2023-04-11T10:54:50.106Z,7.60
2023-04-11T10:57:20.099Z,6.57
2023-04-11T11:00:01.213Z,9.13
2023-04-11T11:02:40.095Z,6.70
2023-04-11T11:05:23.197Z,5.37
2023-04-11T11:07:53.552Z,5.50
2023-04-11T11:10:37.539Z,7.00
2023-04-11T11:13:07.482Z,5.40
2023-04-11T11:15:37.962Z,5.73
2023-04-11T11:18:08.183Z,6.33
2023-04-11T11:20:37.423Z,7.43
2023-04-11T11:23:06.971Z,6.33
2023-04-11T11:25:35.602Z,5.53
2023-04-11T11:28:06.165Z,5.50
2023-04-11T11:30:36.617Z,5.13
2023-04-11T11:33:20.699Z,5.87
2023-04-11T11:35:54.117Z,6.63
2023-04-11T11:38:23.630Z,6.13
2023-04-11T11:40:52.300Z,6.10
2023-04-11T11:43:20.920Z,7.77
2023-04-11T11:46:08.827Z,7.50
2023-04-11T11:48:37.785Z,7.07
2023-04-11T11:51:07.145Z,6.47
2023-04-11T11:53:35.876Z,7.73
2023-04-11T11:56:14.356Z,6.27
2023-04-11T11:58:46.134Z,4.50
2023-04-11T12:01:17.528Z,4.93
2023-04-11T12:03:51.462Z,4.53
2023-04-11T12:06:20.705Z,4.13
2023-04-11T12:08:53.834Z,3.90
2023-04-11T12:11:22.624Z,4.40
2023-04-11T12:13:54.364Z,3.37
2023-04-11T12:16:24.794Z,3.50
2023-04-11T12:18:53.380Z,4.63
2023-04-11T12:21:21.833Z,3.50
2023-04-11T12:23:50.302Z,4.97
2023-04-11T12:26:20.115Z,4.60
2023-04-11T12:28:49.358Z,4.60
2023-04-11T12:31:17.970Z,4.23
2023-04-11T12:33:47.806Z,5.17
2023-04-11T12:36:16.413Z,4.70
2023-04-11T12:38:44.871Z,7.00
2023-04-11T12:41:30.777Z,5.87
2023-04-11T12:44:02.137Z,5.53
2023-04-11T12:46:30.796Z,10.70
2023-04-11T12:49:00.820Z,6.37
2023-04-11T12:51:29.202Z,5.73
2023-04-11T12:53:57.667Z,5.73
2023-04-11T12:56:27.000Z,4.23
2023-04-11T12:58:55.587Z,5.70
2023-04-11T13:01:24.521Z,7.03
2023-04-11T13:03:53.109Z,4.40
2023-04-11T13:06:24.663Z,4.13
2023-04-11T13:08:53.217Z,4.20
2023-04-11T13:11:21.713Z,3.83
2023-04-11T13:13:50.557Z,3.97
2023-04-11T13:16:20.152Z,3.30
2023-04-11T13:18:49.164Z,4.17
2023-04-11T13:21:17.714Z,4.20
2023-04-11T13:23:47.593Z,4.13
2023-04-11T13:26:16.017Z,3.87
2023-04-11T13:28:44.411Z,4.10
2023-04-11T13:31:14.187Z,4.47
2023-04-11T13:33:44.848Z,3.20
2023-04-11T13:36:13.369Z,3.90
2023-04-11T13:38:41.816Z,3.37
2023-04-11T13:41:13.151Z,3.80
2023-04-11T13:43:42.392Z,4.13
2023-04-11T13:46:12.165Z,5.60
2023-04-11T13:48:40.676Z,3.63
2023-04-11T13:51:09.641Z,4.70
2023-04-11T13:53:38.162Z,4.60
2023-04-11T13:56:07.992Z,2.70
2023-04-11T13:58:38.207Z,4.57
2023-04-11T14:01:07.405Z,4.50
2023-04-11T14:03:36.070Z,3.30
2023-04-11T14:06:05.112Z,4.17
2023-04-11T14:08:33.541Z,4.43
2023-04-11T14:11:02.062Z,4.47
2023-04-11T14:13:30.502Z,5.33
2023-04-11T14:16:07.974Z,3.33
2023-04-11T14:18:37.521Z,4.30
2023-04-11T14:21:07.282Z,2.57
2023-04-11T14:23:35.871Z,2.50
2023-04-11T14:26:04.396Z,2.27
2023-04-11T14:28:33.708Z,4.60
2023-04-11T14:31:03.597Z,7.50
2023-04-11T14:33:32.281Z,4.13
2023-04-11T14:36:00.792Z,2.57
2023-04-11T14:38:29.283Z,2.70
2023-04-11T14:40:57.787Z,5.00
2023-04-11T14:43:26.584Z,4.07
2023-04-11T14:45:57.378Z,2.60
2023-04-11T14:48:28.758Z,2.60
2023-04-11T14:50:57.190Z,3.60
2023-04-11T14:53:26.554Z,2.30
2023-04-11T14:55:55.014Z,2.50
2023-04-11T14:58:23.446Z,2.30
2023-04-11T15:00:52.220Z,3.27
2023-04-11T15:03:20.869Z,2.00
2023-04-11T15:05:50.811Z,2.87
2023-04-11T15:08:19.222Z,3.57
2023-04-11T15:10:53.834Z,5.93
2023-04-11T15:13:22.993Z,2.27
2023-04-11T15:15:51.906Z,2.17
2023-04-11T15:18:22.479Z,2.60
2023-04-11T15:20:52.700Z,3.67
2023-04-11T15:23:21.599Z,2.53
2023-04-11T15:25:54.322Z,2.07
2023-04-11T15:28:22.832Z,4.67
2023-04-11T15:30:53.721Z,2.43
2023-04-11T15:33:24.334Z,2.10
2023-04-11T15:35:54.755Z,1.80
2023-04-11T15:38:23.330Z,1.50
2023-04-11T15:40:52.582Z,1.20
2023-04-11T15:43:21.419Z,1.03
2023-04-11T15:45:50.041Z,0.60
2023-04-11T15:48:18.582Z,1.43
2023-04-11T15:50:47.091Z,1.20
2023-04-11T15:53:16.920Z,0.40
2023-04-11T15:55:47.077Z,0.40
2023-04-11T15:58:15.602Z,0.47
2023-04-11T16:00:44.788Z,2.00
2023-04-11T16:03:13.379Z,0.80
2023-04-11T16:05:43.317Z,0.80
2023-04-11T16:08:11.948Z,0.30
2023-04-11T16:10:41.795Z,1.87
2023-04-11T16:13:10.717Z,3.27
2023-04-11T16:15:39.244Z,0.63
2023-04-11T16:18:07.784Z,0.63
2023-04-11T16:20:36.543Z,1.10
2023-04-11T16:23:05.005Z,0.60
2023-04-11T16:25:34.394Z,0.60
2023-04-11T16:28:04.352Z,0.90
2023-04-11T16:30:32.746Z,1.03
2023-04-11T16:33:01.325Z,1.33
2023-04-11T16:35:29.774Z,1.30
2023-04-11T16:37:58.508Z,1.37
2023-04-11T16:40:26.976Z,1.13
2023-04-11T16:42:55.424Z,0.83
2023-04-11T16:45:25.390Z,1.60
2023-04-11T16:47:53.951Z,1.50
2023-04-11T16:50:22.682Z,0.87
2023-04-11T16:52:51.078Z,1.00
2023-04-11T16:55:19.765Z,2.00
2023-04-11T16:57:48.203Z,2.47
2023-04-11T17:00:20.237Z,3.10
2023-04-11T17:02:50.190Z,1.57
2023-04-11T17:05:19.339Z,1.57
2023-04-11T17:07:47.842Z,0.87
2023-04-11T17:10:16.601Z,0.60
2023-04-11T17:12:45.070Z,0.30
2023-04-11T17:15:13.492Z,1.20
2023-04-11T17:17:41.980Z,1.30
2023-04-11T17:20:13.225Z,1.83
2023-04-11T17:22:44.320Z,1.33
2023-04-11T17:25:13.117Z,1.10
2023-04-11T17:27:41.784Z,11.63
2023-04-11T17:30:12.003Z,11.87
2023-04-11T17:32:40.457Z,4.37
2023-04-11T17:35:09.473Z,10.00
2023-04-11T17:37:39.711Z,39.30
2023-04-11T17:40:13.482Z,26.43
2023-04-11T17:42:42.257Z,5.27
2023-04-11T17:45:17.699Z,3.77
2023-04-11T17:47:47.520Z,2.20
2023-04-11T17:50:16.438Z,2.73
2023-04-11T17:52:47.481Z,3.27
2023-04-11T17:55:17.279Z,5.70
2023-04-11T17:57:46.020Z,12.47
2023-04-11T18:00:19.394Z,21.70
2023-04-11T18:02:49.190Z,16.00
2023-04-11T18:05:23.955Z,11.60
2023-04-11T18:07:56.460Z,9.03
2023-04-11T18:10:27.193Z,8.33
2023-04-11T18:12:57.429Z,7.07
2023-04-11T18:15:26.674Z,5.47
2023-04-11T18:17:55.284Z,4.00
2023-04-11T18:20:24.051Z,4.80
2023-04-11T18:22:56.119Z,1.43
2023-04-11T18:25:24.756Z,4.23
2023-04-11T18:27:53.252Z,5.10
2023-04-11T18:30:21.742Z,6.97
2023-04-11T18:32:52.255Z,4.53
2023-04-11T18:35:21.644Z,7.10
2023-04-11T18:37:50.096Z,3.40
2023-04-11T18:40:19.888Z,2.20
2023-04-11T18:42:50.469Z,2.93
2023-04-11T18:45:20.658Z,5.33
2023-04-11T18:47:49.407Z,5.83
2023-04-11T18:50:18.561Z,3.17
2023-04-11T18:52:50.680Z,3.00
2023-04-11T18:55:24.039Z,3.90
2023-04-11T18:57:56.127Z,2.37
2023-04-11T19:00:26.497Z,3.43
2023-04-11T19:02:55.163Z,5.43
2023-04-11T19:05:25.452Z,8.47
2023-04-11T19:07:54.191Z,5.50
2023-04-11T19:10:24.040Z,5.23
2023-04-11T19:12:52.465Z,5.70
2023-04-11T19:15:20.975Z,6.37
2023-04-11T19:17:49.629Z,7.03
2023-04-11T19:20:19.193Z,5.83
2023-04-11T19:22:47.935Z,6.77
2023-04-11T19:25:16.433Z,5.50
2023-04-11T19:27:47.101Z,8.53
2023-04-11T19:30:15.594Z,7.53
2023-04-11T19:32:46.026Z,6.30
2023-04-11T19:35:14.989Z,8.30
2023-04-11T19:37:43.429Z,8.47
2023-04-11T19:40:13.564Z,11.03
2023-04-11T19:42:43.091Z,8.87
2023-04-11T19:45:13.346Z,8.03
2023-04-11T19:47:42.059Z,6.17
2023-04-11T19:50:13.099Z,6.13
2023-04-11T19:52:42.565Z,9.53
2023-04-11T19:55:11.616Z,9.53
2023-04-11T19:57:40.911Z,15.53
2023-04-11T20:00:12.430Z,16.87
2023-04-11T20:02:48.123Z,7.83
2023-04-11T20:05:18.350Z,7.67
2023-04-11T20:07:47.785Z,6.87
2023-04-11T20:10:16.656Z,6.53
2023-04-11T20:12:45.127Z,5.87
2023-04-11T20:15:13.725Z,5.10
2023-04-11T20:17:45.778Z,6.13
2023-04-11T20:20:15.443Z,5.60
2023-04-11T20:22:45.785Z,6.10
2023-04-11T20:25:14.327Z,6.70
2023-04-11T20:27:44.976Z,6.70
2023-04-11T20:30:15.418Z,15.07
2023-04-11T20:32:45.664Z,7.70
2023-04-11T20:35:14.240Z,7.30
2023-04-11T20:37:44.005Z,6.07
2023-04-11T20:40:14.120Z,8.07
2023-04-11T20:42:45.422Z,6.50
2023-04-11T20:45:15.853Z,6.70
2023-04-11T20:47:47.584Z,6.87
2023-04-11T20:50:17.595Z,6.87
2023-04-11T20:52:47.952Z,6.73
2023-04-11T20:55:16.429Z,5.37
2023-04-11T20:57:45.731Z,6.67
2023-04-11T21:00:16.493Z,5.70
2023-04-11T21:02:50.110Z,5.87
2023-04-11T21:05:21.338Z,5.27
2023-04-11T21:07:50.117Z,5.73
2023-04-11T21:10:20.849Z,4.63
2023-04-11T21:12:51.736Z,4.27
2023-04-11T21:15:20.942Z,4.37
2023-04-11T21:17:52.300Z,3.73
2023-04-11T21:20:22.176Z,3.33
2023-04-11T21:22:52.858Z,3.10
2023-04-11T21:25:21.547Z,2.20
2023-04-11T21:27:50.284Z,3.63
2023-04-11T21:30:18.750Z,3.23
2023-04-11T21:32:47.183Z,3.27
2023-04-11T21:35:17.126Z,5.17
2023-04-11T21:37:47.723Z,4.70
2023-04-11T21:40:17.479Z,5.23
2023-04-11T21:42:46.226Z,3.77
2023-04-11T21:45:14.678Z,3.13
2023-04-11T21:47:43.105Z,5.43
2023-04-11T21:50:12.512Z,25.50
2023-04-11T21:52:43.414Z,4.57
2023-04-11T21:55:12.568Z,5.33
2023-04-11T21:57:41.113Z,3.77
2023-04-11T22:00:12.037Z,4.47
2023-04-11T22:02:40.821Z,3.30
2023-04-11T22:05:09.897Z,4.30
2023-04-11T22:07:47.415Z,4.80
2023-04-11T22:10:23.646Z,3.90
2023-04-11T22:12:54.458Z,3.90
2023-04-11T22:15:24.194Z,3.07
2023-04-11T22:17:56.541Z,3.33
2023-04-11T22:20:25.215Z,6.03
2023-04-11T22:22:53.693Z,5.50
2023-04-11T22:25:23.751Z,5.70
2023-04-11T22:27:54.409Z,6.90
2023-04-11T22:30:24.276Z,4.03
2023-04-11T22:32:54.274Z,4.37
2023-04-11T22:35:23.382Z,5.07
2023-04-11T22:37:53.665Z,4.77
2023-04-11T22:40:23.620Z,4.63
2023-04-11T22:42:52.850Z,3.80
2023-04-11T22:45:22.333Z,3.30
2023-04-11T22:47:55.627Z,5.23
2023-04-11T22:50:24.164Z,4.70
2023-04-11T22:52:54.766Z,5.73
2023-04-11T22:55:24.992Z,3.97
2023-04-11T22:57:53.445Z,5.73
2023-04-11T23:00:24.074Z,4.83
2023-04-11T23:02:52.762Z,3.17
2023-04-11T23:05:21.394Z,3.20
2023-04-11T23:07:49.973Z,3.73
2023-04-11T23:10:19.231Z,3.43
2023-04-11T23:12:49.449Z,3.23
2023-04-11T23:15:18.472Z,3.27
2023-04-11T23:17:46.933Z,4.40
2023-04-11T23:20:15.806Z,4.13
2023-04-11T23:22:44.492Z,5.40
2023-04-11T23:25:14.955Z,4.63
2023-04-11T23:27:43.931Z,4.70
2023-04-11T23:30:15.131Z,3.87
2023-04-11T23:32:43.808Z,3.80
2023-04-11T23:35:12.844Z,4.50
2023-04-11T23:37:41.350Z,3.73
2023-04-11T23:40:14.004Z,4.27
2023-04-11T23:42:42.855Z,3.97
2023-04-11T23:45:14.960Z,4.73
2023-04-11T23:47:43.458Z,4.37
2023-04-11T23:50:12.489Z,5.13
2023-04-11T23:52:41.056Z,6.33
2023-04-11T23:55:10.042Z,5.77
2023-04-11T23:57:38.560Z,5.37
